sensor_id;sensor_type;location;lat;lon;timestamp;P1;durP1;ratioP1;P2;durP2;ratioP2
78778;SDS011;68121;52.404;5.318;2023-07-20T00:01:29;1.90;;;0.63;;
78778;SDS011;68121;52.404;5.318;2023-07-20T00:03:55;0.80;;;0.55;;
78778;SDS011;68121;52.404;5.318;2023-07-20T00:06:21;1.00;;;0.68;;
78778;SDS011;68121;52.404;5.318;2023-07-20T00:08:49;1.23;;;0.77;;
78778;SDS011;68121;52.404;5.318;2023-07-20T00:11:15;1.98;;;0.50;;
78778;SDS011;68121;52.404;5.318;2023-07-20T00:13:41;1.95;;;0.90;;
78778;SDS011;68121;52.404;5.318;2023-07-20T00:16:07;1.50;;;0.60;;
78778;SDS011;68121;52.404;5.318;2023-07-20T00:18:34;1.13;;;0.65;;
78778;SDS011;68121;52.404;5.318;2023-07-20T00:21:00;1.63;;;0.65;;
78778;SDS011;68121;52.404;5.318;2023-07-20T00:23:27;0.93;;;0.70;;
78778;SDS011;68121;52.404;5.318;2023-07-20T00:25:54;0.60;;;0.60;;
78778;SDS011;68121;52.404;5.318;2023-07-20T00:28:20;1.42;;;0.82;;
78778;SDS011;68121;52.404;5.318;2023-07-20T00:30:46;0.98;;;0.80;;
78778;SDS011;68121;52.404;5.318;2023-07-20T00:33:12;0.88;;;0.60;;
78778;SDS011;68121;52.404;5.318;2023-07-20T00:35:42;2.17;;;1.05;;
78778;SDS011;68121;52.404;5.318;2023-07-20T00:38:08;1.42;;;0.70;;
78778;SDS011;68121;52.404;5.318;2023-07-20T00:40:37;1.42;;;1.08;;
78778;SDS011;68121;52.404;5.318;2023-07-20T00:43:04;1.17;;;0.80;;
78778;SDS011;68121;52.404;5.318;2023-07-20T00:45:31;1.33;;;0.70;;
78778;SDS011;68121;52.404;5.318;2023-07-20T00:47:58;1.45;;;0.63;;
78778;SDS011;68121;52.404;5.318;2023-07-20T00:50:25;1.70;;;0.73;;
78778;SDS011;68121;52.404;5.318;2023-07-20T00:52:52;1.00;;;0.70;;
78778;SDS011;68121;52.404;5.318;2023-07-20T00:55:20;1.15;;;0.80;;
78778;SDS011;68121;52.404;5.318;2023-07-20T00:57:46;1.02;;;0.60;;
78778;SDS011;68121;52.404;5.318;2023-07-20T01:00:13;1.95;;;0.90;;
78778;SDS011;68121;52.404;5.318;2023-07-20T01:02:39;1.38;;;0.70;;
78778;SDS011;68121;52.404;5.318;2023-07-20T01:05:05;1.13;;;0.70;;
78778;SDS011;68121;52.404;5.318;2023-07-20T01:07:34;1.60;;;0.50;;
78778;SDS011;68121;52.404;5.318;2023-07-20T01:12:43;0.88;;;0.57;;
78778;SDS011;68121;52.404;5.318;2023-07-20T01:15:12;1.77;;;0.65;;
78778;SDS011;68121;52.404;5.318;2023-07-20T01:17:39;2.58;;;0.50;;
78778;SDS011;68121;52.404;5.318;2023-07-20T01:20:08;2.60;;;0.70;;
78778;SDS011;68121;52.404;5.318;2023-07-20T01:30:55;1.95;;;0.60;;
78778;SDS011;68121;52.404;5.318;2023-07-20T01:33:40;0.60;;;0.60;;
78778;SDS011;68121;52.404;5.318;2023-07-20T01:36:07;1.13;;;0.75;;
78778;SDS011;68121;52.404;5.318;2023-07-20T01:38:35;1.77;;;0.80;;
78778;SDS011;68121;52.404;5.318;2023-07-20T01:41:02;1.00;;;0.65;;
78778;SDS011;68121;52.404;5.318;2023-07-20T01:43:29;0.77;;;0.52;;
78778;SDS011;68121;52.404;5.318;2023-07-20T01:45:55;1.17;;;0.57;;
78778;SDS011;68121;52.404;5.318;2023-07-20T01:48:21;1.50;;;0.60;;
78778;SDS011;68121;52.404;5.318;2023-07-20T01:50:47;0.85;;;0.57;;
78778;SDS011;68121;52.404;5.318;2023-07-20T01:53:13;1.75;;;0.55;;
78778;SDS011;68121;52.404;5.318;2023-07-20T01:55:39;0.77;;;0.50;;
78778;SDS011;68121;52.404;5.318;2023-07-20T01:58:05;2.60;;;0.63;;
78778;SDS011;68121;52.404;5.318;2023-07-20T02:00:32;1.40;;;0.70;;
78778;SDS011;68121;52.404;5.318;2023-07-20T02:02:58;1.15;;;0.75;;
78778;SDS011;68121;52.404;5.318;2023-07-20T02:05:24;2.10;;;0.50;;
78778;SDS011;68121;52.404;5.318;2023-07-20T02:07:50;2.60;;;0.70;;
78778;SDS011;68121;52.404;5.318;2023-07-20T02:10:16;1.90;;;0.60;;
78778;SDS011;68121;52.404;5.318;2023-07-20T02:12:42;3.78;;;0.50;;
78778;SDS011;68121;52.404;5.318;2023-07-20T02:15:08;1.25;;;0.57;;
78778;SDS011;68121;52.404;5.318;2023-07-20T02:17:35;0.82;;;0.68;;
78778;SDS011;68121;52.404;5.318;2023-07-20T02:20:01;0.40;;;0.40;;
78778;SDS011;68121;52.404;5.318;2023-07-20T02:22:27;4.60;;;0.50;;
78778;SDS011;68121;52.404;5.318;2023-07-20T02:24:53;1.85;;;0.68;;
78778;SDS011;68121;52.404;5.318;2023-07-20T02:27:19;1.83;;;0.63;;
78778;SDS011;68121;52.404;5.318;2023-07-20T02:29:45;1.00;;;0.45;;
78778;SDS011;68121;52.404;5.318;2023-07-20T02:32:11;0.52;;;0.40;;
78778;SDS011;68121;52.404;5.318;2023-07-20T02:34:38;0.60;;;0.47;;
78778;SDS011;68121;52.404;5.318;2023-07-20T02:37:04;1.20;;;0.70;;
78778;SDS011;68121;52.404;5.318;2023-07-20T02:39:30;1.73;;;0.65;;
78778;SDS011;68121;52.404;5.318;2023-07-20T02:41:56;0.70;;;0.35;;
78778;SDS011;68121;52.404;5.318;2023-07-20T02:44:22;0.93;;;0.68;;
78778;SDS011;68121;52.404;5.318;2023-07-20T02:46:49;1.88;;;0.50;;
78778;SDS011;68121;52.404;5.318;2023-07-20T02:49:15;1.15;;;0.40;;
78778;SDS011;68121;52.404;5.318;2023-07-20T02:51:41;0.45;;;0.38;;
78778;SDS011;68121;52.404;5.318;2023-07-20T02:54:07;0.60;;;0.40;;
78778;SDS011;68121;52.404;5.318;2023-07-20T02:56:33;0.40;;;0.40;;
78778;SDS011;68121;52.404;5.318;2023-07-20T02:59:03;2.60;;;0.73;;
78778;SDS011;68121;52.404;5.318;2023-07-20T03:01:29;1.05;;;0.65;;
78778;SDS011;68121;52.404;5.318;2023-07-20T03:03:55;0.68;;;0.50;;
78778;SDS011;68121;52.404;5.318;2023-07-20T03:06:21;2.67;;;0.70;;
78778;SDS011;68121;52.404;5.318;2023-07-20T03:08:48;2.55;;;1.75;;
78778;SDS011;68121;52.404;5.318;2023-07-20T03:11:14;0.70;;;0.47;;
78778;SDS011;68121;52.404;5.318;2023-07-20T03:13:41;2.70;;;0.57;;
78778;SDS011;68121;52.404;5.318;2023-07-20T03:16:11;1.00;;;0.47;;
78778;SDS011;68121;52.404;5.318;2023-07-20T03:18:41;2.45;;;0.70;;
78778;SDS011;68121;52.404;5.318;2023-07-20T03:21:08;1.23;;;0.50;;
78778;SDS011;68121;52.404;5.318;2023-07-20T03:23:37;0.77;;;0.73;;
78778;SDS011;68121;52.404;5.318;2023-07-20T03:26:03;0.80;;;0.60;;
78778;SDS011;68121;52.404;5.318;2023-07-20T03:28:29;0.80;;;0.60;;
78778;SDS011;68121;52.404;5.318;2023-07-20T03:30:56;1.48;;;0.63;;
78778;SDS011;68121;52.404;5.318;2023-07-20T03:33:24;1.45;;;0.80;;
78778;SDS011;68121;52.404;5.318;2023-07-20T03:35:51;2.25;;;0.73;;
78778;SDS011;68121;52.404;5.318;2023-07-20T03:38:18;1.48;;;0.57;;
78778;SDS011;68121;52.404;5.318;2023-07-20T03:40:51;1.85;;;0.70;;
78778;SDS011;68121;52.404;5.318;2023-07-20T03:43:18;1.42;;;0.63;;
78778;SDS011;68121;52.404;5.318;2023-07-20T03:45:44;0.77;;;0.55;;
78778;SDS011;68121;52.404;5.318;2023-07-20T03:48:20;1.20;;;0.70;;
78778;SDS011;68121;52.404;5.318;2023-07-20T03:50:48;1.30;;;0.60;;
78778;SDS011;68121;52.404;5.318;2023-07-20T03:53:17;0.90;;;0.60;;
78778;SDS011;68121;52.404;5.318;2023-07-20T03:55:47;1.48;;;0.70;;
78778;SDS011;68121;52.404;5.318;2023-07-20T03:58:15;1.35;;;0.70;;
78778;SDS011;68121;52.404;5.318;2023-07-20T04:00:51;1.55;;;0.88;;
78778;SDS011;68121;52.404;5.318;2023-07-20T04:03:17;1.45;;;0.70;;
78778;SDS011;68121;52.404;5.318;2023-07-20T04:05:44;1.23;;;0.88;;
78778;SDS011;68121;52.404;5.318;2023-07-20T04:08:11;1.05;;;0.63;;
78778;SDS011;68121;52.404;5.318;2023-07-20T04:10:37;1.27;;;1.02;;
78778;SDS011;68121;52.404;5.318;2023-07-20T04:13:04;1.77;;;1.30;;
78778;SDS011;68121;52.404;5.318;2023-07-20T04:15:31;2.40;;;1.35;;
78778;SDS011;68121;52.404;5.318;2023-07-20T04:17:57;2.90;;;1.10;;
78778;SDS011;68121;52.404;5.318;2023-07-20T04:20:23;1.92;;;1.23;;
78778;SDS011;68121;52.404;5.318;2023-07-20T04:22:49;2.58;;;1.50;;
78778;SDS011;68121;52.404;5.318;2023-07-20T04:25:16;3.30;;;1.45;;
78778;SDS011;68121;52.404;5.318;2023-07-20T04:27:45;1.75;;;1.33;;
78778;SDS011;68121;52.404;5.318;2023-07-20T04:30:12;1.98;;;1.40;;
78778;SDS011;68121;52.404;5.318;2023-07-20T04:32:38;2.45;;;1.58;;
78778;SDS011;68121;52.404;5.318;2023-07-20T04:35:16;1.77;;;1.38;;
78778;SDS011;68121;52.404;5.318;2023-07-20T04:37:43;3.55;;;1.73;;
78778;SDS011;68121;52.404;5.318;2023-07-20T04:40:12;1.70;;;1.58;;
78778;SDS011;68121;52.404;5.318;2023-07-20T04:42:41;3.58;;;2.05;;
78778;SDS011;68121;52.404;5.318;2023-07-20T04:45:07;3.63;;;2.03;;
78778;SDS011;68121;52.404;5.318;2023-07-20T04:47:34;2.60;;;1.83;;
78778;SDS011;68121;52.404;5.318;2023-07-20T04:50:00;2.63;;;1.98;;
78778;SDS011;68121;52.404;5.318;2023-07-20T04:52:26;2.42;;;1.77;;
78778;SDS011;68121;52.404;5.318;2023-07-20T04:54:52;2.92;;;2.15;;
78778;SDS011;68121;52.404;5.318;2023-07-20T04:57:18;4.15;;;1.70;;
78778;SDS011;68121;52.404;5.318;2023-07-20T04:59:44;2.55;;;1.80;;
78778;SDS011;68121;52.404;5.318;2023-07-20T05:02:10;2.70;;;1.40;;
78778;SDS011;68121;52.404;5.318;2023-07-20T05:04:36;3.08;;;1.77;;
78778;SDS011;68121;52.404;5.318;2023-07-20T05:07:02;2.70;;;1.65;;
78778;SDS011;68121;52.404;5.318;2023-07-20T05:09:28;2.22;;;1.42;;
78778;SDS011;68121;52.404;5.318;2023-07-20T05:11:54;3.00;;;1.33;;
78778;SDS011;68121;52.404;5.318;2023-07-20T05:14:20;2.40;;;1.20;;
78778;SDS011;68121;52.404;5.318;2023-07-20T05:16:46;1.63;;;1.20;;
78778;SDS011;68121;52.404;5.318;2023-07-20T05:19:12;2.28;;;1.08;;
78778;SDS011;68121;52.404;5.318;2023-07-20T05:21:38;4.68;;;2.08;;
78778;SDS011;68121;52.404;5.318;2023-07-20T05:24:05;3.38;;;1.20;;
78778;SDS011;68121;52.404;5.318;2023-07-20T05:26:31;1.40;;;0.80;;
78778;SDS011;68121;52.404;5.318;2023-07-20T05:28:58;1.88;;;1.20;;
78778;SDS011;68121;52.404;5.318;2023-07-20T05:31:24;1.27;;;1.00;;
78778;SDS011;68121;52.404;5.318;2023-07-20T05:33:51;2.28;;;1.23;;
78778;SDS011;68121;52.404;5.318;2023-07-20T05:36:17;2.67;;;1.40;;
78778;SDS011;68121;52.404;5.318;2023-07-20T05:38:43;2.15;;;0.88;;
78778;SDS011;68121;52.404;5.318;2023-07-20T05:41:09;0.68;;;0.68;;
78778;SDS011;68121;52.404;5.318;2023-07-20T05:43:38;1.33;;;0.93;;
78778;SDS011;68121;52.404;5.318;2023-07-20T05:46:04;0.93;;;0.80;;
78778;SDS011;68121;52.404;5.318;2023-07-20T05:48:30;2.13;;;1.13;;
78778;SDS011;68121;52.404;5.318;2023-07-20T05:50:57;2.25;;;0.90;;
78778;SDS011;68121;52.404;5.318;2023-07-20T05:53:23;1.27;;;0.57;;
78778;SDS011;68121;52.404;5.318;2023-07-20T05:55:53;0.70;;;0.60;;
78778;SDS011;68121;52.404;5.318;2023-07-20T05:58:19;1.08;;;0.70;;
78778;SDS011;68121;52.404;5.318;2023-07-20T06:00:49;2.13;;;0.63;;
78778;SDS011;68121;52.404;5.318;2023-07-20T06:03:16;0.57;;;0.30;;
78778;SDS011;68121;52.404;5.318;2023-07-20T06:05:42;0.88;;;0.40;;
78778;SDS011;68121;52.404;5.318;2023-07-20T06:08:09;0.60;;;0.30;;
78778;SDS011;68121;52.404;5.318;2023-07-20T06:10:35;1.00;;;0.30;;
78778;SDS011;68121;52.404;5.318;2023-07-20T06:13:01;0.60;;;0.50;;
78778;SDS011;68121;52.404;5.318;2023-07-20T06:15:33;1.75;;;0.40;;
78778;SDS011;68121;52.404;5.318;2023-07-20T06:18:03;0.32;;;0.30;;
78778;SDS011;68121;52.404;5.318;2023-07-20T06:20:29;0.70;;;0.40;;
78778;SDS011;68121;52.404;5.318;2023-07-20T06:22:56;1.02;;;0.63;;
78778;SDS011;68121;52.404;5.318;2023-07-20T06:25:22;1.60;;;0.40;;
78778;SDS011;68121;52.404;5.318;2023-07-20T06:27:49;0.60;;;0.35;;
78778;SDS011;68121;52.404;5.318;2023-07-20T06:30:17;0.30;;;0.30;;
78778;SDS011;68121;52.404;5.318;2023-07-20T06:32:43;0.80;;;0.65;;
78778;SDS011;68121;52.404;5.318;2023-07-20T06:35:09;0.98;;;0.32;;
78778;SDS011;68121;52.404;5.318;2023-07-20T06:37:35;2.45;;;0.43;;
78778;SDS011;68121;52.404;5.318;2023-07-20T06:40:02;1.38;;;0.40;;
78778;SDS011;68121;52.404;5.318;2023-07-20T06:42:48;1.88;;;0.30;;
78778;SDS011;68121;52.404;5.318;2023-07-20T06:45:15;1.20;;;0.70;;
78778;SDS011;68121;52.404;5.318;2023-07-20T06:47:41;1.27;;;0.43;;
78778;SDS011;68121;52.404;5.318;2023-07-20T06:50:08;1.10;;;0.50;;
78778;SDS011;68121;52.404;5.318;2023-07-20T06:52:35;0.90;;;0.40;;
78778;SDS011;68121;52.404;5.318;2023-07-20T06:55:01;0.47;;;0.30;;
78778;SDS011;68121;52.404;5.318;2023-07-20T06:57:28;1.48;;;0.40;;
78778;SDS011;68121;52.404;5.318;2023-07-20T06:59:54;1.17;;;0.22;;
78778;SDS011;68121;52.404;5.318;2023-07-20T07:02:20;0.85;;;0.30;;
78778;SDS011;68121;52.404;5.318;2023-07-20T07:04:46;0.50;;;0.30;;
78778;SDS011;68121;52.404;5.318;2023-07-20T07:07:14;0.57;;;0.45;;
78778;SDS011;68121;52.404;5.318;2023-07-20T07:09:40;1.42;;;0.32;;
78778;SDS011;68121;52.404;5.318;2023-07-20T07:12:07;0.82;;;0.30;;
78778;SDS011;68121;52.404;5.318;2023-07-20T07:14:33;0.73;;;0.32;;
78778;SDS011;68121;52.404;5.318;2023-07-20T07:17:00;0.45;;;0.20;;
78778;SDS011;68121;52.404;5.318;2023-07-20T07:19:26;1.63;;;0.40;;
78778;SDS011;68121;52.404;5.318;2023-07-20T07:21:52;0.40;;;0.20;;
78778;SDS011;68121;52.404;5.318;2023-07-20T07:24:18;0.98;;;0.43;;
78778;SDS011;68121;52.404;5.318;2023-07-20T07:26:44;0.80;;;0.30;;
78778;SDS011;68121;52.404;5.318;2023-07-20T07:29:10;0.28;;;0.28;;
78778;SDS011;68121;52.404;5.318;2023-07-20T07:31:36;0.68;;;0.20;;
78778;SDS011;68121;52.404;5.318;2023-07-20T07:34:04;1.17;;;0.20;;
78778;SDS011;68121;52.404;5.318;2023-07-20T07:36:30;1.48;;;0.30;;
78778;SDS011;68121;52.404;5.318;2023-07-20T07:38:57;1.23;;;0.90;;
78778;SDS011;68121;52.404;5.318;2023-07-20T07:41:23;0.52;;;0.52;;
78778;SDS011;68121;52.404;5.318;2023-07-20T07:43:49;0.13;;;0.13;;
78778;SDS011;68121;52.404;5.318;2023-07-20T07:46:15;0.43;;;0.20;;
78778;SDS011;68121;52.404;5.318;2023-07-20T07:48:42;0.43;;;0.30;;
78778;SDS011;68121;52.404;5.318;2023-07-20T07:51:08;1.60;;;0.20;;
78778;SDS011;68121;52.404;5.318;2023-07-20T07:53:34;0.80;;;0.20;;
78778;SDS011;68121;52.404;5.318;2023-07-20T07:56:02;1.73;;;0.22;;
78778;SDS011;68121;52.404;5.318;2023-07-20T07:58:28;1.58;;;0.57;;
78778;SDS011;68121;52.404;5.318;2023-07-20T08:00:55;1.50;;;0.30;;
78778;SDS011;68121;52.404;5.318;2023-07-20T08:03:21;0.32;;;0.20;;
78778;SDS011;68121;52.404;5.318;2023-07-20T08:05:49;0.45;;;0.30;;
78778;SDS011;68121;52.404;5.318;2023-07-20T08:08:15;0.20;;;0.20;;
78778;SDS011;68121;52.404;5.318;2023-07-20T08:10:42;0.43;;;0.22;;
78778;SDS011;68121;52.404;5.318;2023-07-20T08:13:08;3.38;;;0.40;;
78778;SDS011;68121;52.404;5.318;2023-07-20T08:15:34;0.38;;;0.20;;
78778;SDS011;68121;52.404;5.318;2023-07-20T08:18:01;0.85;;;0.25;;
78778;SDS011;68121;52.404;5.318;2023-07-20T08:20:27;0.70;;;0.40;;
78778;SDS011;68121;52.404;5.318;2023-07-20T08:22:54;0.40;;;0.20;;
78778;SDS011;68121;52.404;5.318;2023-07-20T08:25:20;1.38;;;0.43;;
78778;SDS011;68121;52.404;5.318;2023-07-20T08:27:47;0.20;;;0.20;;
78778;SDS011;68121;52.404;5.318;2023-07-20T08:30:13;0.52;;;0.30;;
78778;SDS011;68121;52.404;5.318;2023-07-20T08:32:39;0.30;;;0.28;;
78778;SDS011;68121;52.404;5.318;2023-07-20T08:35:06;0.30;;;0.20;;
78778;SDS011;68121;52.404;5.318;2023-07-20T08:37:32;0.68;;;0.30;;
78778;SDS011;68121;52.404;5.318;2023-07-20T08:39:58;0.40;;;0.25;;
78778;SDS011;68121;52.404;5.318;2023-07-20T08:42:24;0.30;;;0.20;;
78778;SDS011;68121;52.404;5.318;2023-07-20T08:44:52;0.20;;;0.20;;
78778;SDS011;68121;52.404;5.318;2023-07-20T08:47:20;1.15;;;0.30;;
78778;SDS011;68121;52.404;5.318;2023-07-20T08:49:48;0.38;;;0.35;;
78778;SDS011;68121;52.404;5.318;2023-07-20T08:52:14;0.65;;;0.25;;
78778;SDS011;68121;52.404;5.318;2023-07-20T08:54:40;0.60;;;0.20;;
78778;SDS011;68121;52.404;5.318;2023-07-20T08:57:06;0.38;;;0.30;;
78778;SDS011;68121;52.404;5.318;2023-07-20T08:59:37;1.52;;;0.20;;
78778;SDS011;68121;52.404;5.318;2023-07-20T09:02:04;2.70;;;0.40;;
78778;SDS011;68121;52.404;5.318;2023-07-20T09:04:34;1.33;;;0.35;;
78778;SDS011;68121;52.404;5.318;2023-07-20T09:07:00;0.32;;;0.30;;
78778;SDS011;68121;52.404;5.318;2023-07-20T09:09:27;0.20;;;0.10;;
78778;SDS011;68121;52.404;5.318;2023-07-20T09:11:53;0.30;;;0.30;;
78778;SDS011;68121;52.404;5.318;2023-07-20T09:14:19;1.98;;;0.32;;
78778;SDS011;68121;52.404;5.318;2023-07-20T09:16:48;0.80;;;0.40;;
78778;SDS011;68121;52.404;5.318;2023-07-20T09:19:21;1.02;;;0.30;;
78778;SDS011;68121;52.404;5.318;2023-07-20T09:21:50;0.43;;;0.20;;
78778;SDS011;68121;52.404;5.318;2023-07-20T09:24:18;1.02;;;0.40;;
78778;SDS011;68121;52.404;5.318;2023-07-20T09:26:45;1.00;;;0.30;;
78778;SDS011;68121;52.404;5.318;2023-07-20T09:34:30;1.33;;;0.22;;
78778;SDS011;68121;52.404;5.318;2023-07-20T09:37:00;0.40;;;0.32;;
78778;SDS011;68121;52.404;5.318;2023-07-20T09:39:26;0.30;;;0.30;;
78778;SDS011;68121;52.404;5.318;2023-07-20T09:41:53;0.50;;;0.28;;
78778;SDS011;68121;52.404;5.318;2023-07-20T09:44:19;0.47;;;0.30;;
78778;SDS011;68121;52.404;5.318;2023-07-20T09:46:46;1.80;;;0.60;;
78778;SDS011;68121;52.404;5.318;2023-07-20T09:49:13;1.08;;;0.40;;
78778;SDS011;68121;52.404;5.318;2023-07-20T09:51:40;0.85;;;0.30;;
78778;SDS011;68121;52.404;5.318;2023-07-20T09:54:07;0.57;;;0.30;;
78778;SDS011;68121;52.404;5.318;2023-07-20T09:56:34;0.20;;;0.20;;
78778;SDS011;68121;52.404;5.318;2023-07-20T09:59:01;0.95;;;0.40;;
78778;SDS011;68121;52.404;5.318;2023-07-20T10:01:27;0.60;;;0.22;;
78778;SDS011;68121;52.404;5.318;2023-07-20T10:03:57;1.25;;;0.20;;
78778;SDS011;68121;52.404;5.318;2023-07-20T10:06:24;0.40;;;0.30;;
78778;SDS011;68121;52.404;5.318;2023-07-20T10:08:55;0.30;;;0.30;;
78778;SDS011;68121;52.404;5.318;2023-07-20T10:11:26;0.30;;;0.20;;
78778;SDS011;68121;52.404;5.318;2023-07-20T10:13:54;0.30;;;0.10;;
78778;SDS011;68121;52.404;5.318;2023-07-20T10:16:38;0.22;;;0.20;;
78778;SDS011;68121;52.404;5.318;2023-07-20T10:22:18;0.63;;;0.30;;
78778;SDS011;68121;52.404;5.318;2023-07-20T10:24:49;0.47;;;0.25;;
78778;SDS011;68121;52.404;5.318;2023-07-20T10:27:22;1.75;;;0.30;;
78778;SDS011;68121;52.404;5.318;2023-07-20T10:29:48;1.10;;;0.38;;
78778;SDS011;68121;52.404;5.318;2023-07-20T10:32:16;0.30;;;0.30;;
78778;SDS011;68121;52.404;5.318;2023-07-20T10:34:49;1.27;;;0.30;;
78778;SDS011;68121;52.404;5.318;2023-07-20T10:40:25;0.52;;;0.30;;
78778;SDS011;68121;52.404;5.318;2023-07-20T10:42:57;0.52;;;0.30;;
78778;SDS011;68121;52.404;5.318;2023-07-20T10:45:39;1.00;;;0.20;;
78778;SDS011;68121;52.404;5.318;2023-07-20T10:48:17;0.82;;;0.30;;
78778;SDS011;68121;52.404;5.318;2023-07-20T10:50:45;1.15;;;0.30;;
78778;SDS011;68121;52.404;5.318;2023-07-20T10:53:33;0.52;;;0.30;;
78778;SDS011;68121;52.404;5.318;2023-07-20T10:56:07;0.20;;;0.20;;
78778;SDS011;68121;52.404;5.318;2023-07-20T10:58:40;0.93;;;0.20;;
78778;SDS011;68121;52.404;5.318;2023-07-20T11:01:07;0.38;;;0.35;;
78778;SDS011;68121;52.404;5.318;2023-07-20T11:03:37;0.95;;;0.30;;
78778;SDS011;68121;52.404;5.318;2023-07-20T11:08:54;0.30;;;0.30;;
78778;SDS011;68121;52.404;5.318;2023-07-20T11:11:32;1.10;;;1.00;;
78778;SDS011;68121;52.404;5.318;2023-07-20T11:16:36;0.43;;;0.40;;
78778;SDS011;68121;52.404;5.318;2023-07-20T11:19:03;2.13;;;0.50;;
78778;SDS011;68121;52.404;5.318;2023-07-20T11:21:40;0.85;;;0.40;;
78778;SDS011;68121;52.404;5.318;2023-07-20T11:24:06;0.52;;;0.43;;
78778;SDS011;68121;52.404;5.318;2023-07-20T11:26:45;0.73;;;0.60;;
78778;SDS011;68121;52.404;5.318;2023-07-20T11:29:21;1.10;;;0.60;;
78778;SDS011;68121;52.404;5.318;2023-07-20T11:31:49;0.52;;;0.32;;
78778;SDS011;68121;52.404;5.318;2023-07-20T11:34:16;1.02;;;0.30;;
78778;SDS011;68121;52.404;5.318;2023-07-20T11:36:44;1.33;;;0.40;;
78778;SDS011;68121;52.404;5.318;2023-07-20T11:39:15;1.35;;;0.30;;
78778;SDS011;68121;52.404;5.318;2023-07-20T11:41:48;0.68;;;0.40;;
78778;SDS011;68121;52.404;5.318;2023-07-20T11:44:17;0.50;;;0.40;;
78778;SDS011;68121;52.404;5.318;2023-07-20T11:49:34;0.55;;;0.43;;
78778;SDS011;68121;52.404;5.318;2023-07-20T11:52:03;0.82;;;0.40;;
78778;SDS011;68121;52.404;5.318;2023-07-20T11:54:34;1.00;;;0.50;;
78778;SDS011;68121;52.404;5.318;2023-07-20T11:57:04;0.80;;;0.55;;
78778;SDS011;68121;52.404;5.318;2023-07-20T11:59:33;1.65;;;0.73;;
78778;SDS011;68121;52.404;5.318;2023-07-20T12:02:03;0.93;;;0.40;;
78778;SDS011;68121;52.404;5.318;2023-07-20T12:04:30;1.63;;;0.60;;
78778;SDS011;68121;52.404;5.318;2023-07-20T12:06:57;1.92;;;0.43;;
78778;SDS011;68121;52.404;5.318;2023-07-20T12:09:23;1.30;;;0.77;;
78778;SDS011;68121;52.404;5.318;2023-07-20T12:11:50;0.60;;;0.50;;
78778;SDS011;68121;52.404;5.318;2023-07-20T12:14:16;0.70;;;0.55;;
78778;SDS011;68121;52.404;5.318;2023-07-20T12:16:42;1.27;;;0.65;;
78778;SDS011;68121;52.404;5.318;2023-07-20T12:19:12;0.70;;;0.50;;
78778;SDS011;68121;52.404;5.318;2023-07-20T12:21:41;1.15;;;0.50;;
78778;SDS011;68121;52.404;5.318;2023-07-20T12:24:08;0.98;;;0.55;;
78778;SDS011;68121;52.404;5.318;2023-07-20T12:26:36;1.15;;;0.40;;
78778;SDS011;68121;52.404;5.318;2023-07-20T12:29:02;0.43;;;0.30;;
78778;SDS011;68121;52.404;5.318;2023-07-20T12:31:33;1.20;;;0.63;;
78778;SDS011;68121;52.404;5.318;2023-07-20T12:34:02;0.85;;;0.57;;
78778;SDS011;68121;52.404;5.318;2023-07-20T12:36:28;1.83;;;0.70;;
78778;SDS011;68121;52.404;5.318;2023-07-20T12:38:54;1.05;;;0.70;;
78778;SDS011;68121;52.404;5.318;2023-07-20T12:41:20;1.48;;;0.60;;
78778;SDS011;68121;52.404;5.318;2023-07-20T12:43:46;1.58;;;0.80;;
78778;SDS011;68121;52.404;5.318;2023-07-20T12:46:12;1.30;;;0.77;;
78778;SDS011;68121;52.404;5.318;2023-07-20T12:48:39;0.57;;;0.47;;
78778;SDS011;68121;52.404;5.318;2023-07-20T12:51:07;2.33;;;0.50;;
78778;SDS011;68121;52.404;5.318;2023-07-20T12:53:34;0.65;;;0.60;;
78778;SDS011;68121;52.404;5.318;2023-07-20T12:56:01;0.88;;;0.68;;
78778;SDS011;68121;52.404;5.318;2023-07-20T12:58:27;0.82;;;0.50;;
78778;SDS011;68121;52.404;5.318;2023-07-20T13:00:54;1.33;;;0.60;;
78778;SDS011;68121;52.404;5.318;2023-07-20T13:03:20;1.02;;;0.70;;
78778;SDS011;68121;52.404;5.318;2023-07-20T13:05:46;3.83;;;0.77;;
78778;SDS011;68121;52.404;5.318;2023-07-20T13:08:13;2.95;;;0.70;;
78778;SDS011;68121;52.404;5.318;2023-07-20T13:10:40;0.65;;;0.52;;
78778;SDS011;68121;52.404;5.318;2023-07-20T13:13:07;0.70;;;0.68;;
78778;SDS011;68121;52.404;5.318;2023-07-20T13:15:40;0.90;;;0.63;;
78778;SDS011;68121;52.404;5.318;2023-07-20T13:18:07;1.83;;;0.43;;
78778;SDS011;68121;52.404;5.318;2023-07-20T13:20:33;0.93;;;0.57;;
78778;SDS011;68121;52.404;5.318;2023-07-20T13:23:00;0.77;;;0.57;;
78778;SDS011;68121;52.404;5.318;2023-07-20T13:25:27;0.98;;;0.70;;
78778;SDS011;68121;52.404;5.318;2023-07-20T13:27:53;0.50;;;0.50;;
78778;SDS011;68121;52.404;5.318;2023-07-20T13:30:19;0.98;;;0.50;;
78778;SDS011;68121;52.404;5.318;2023-07-20T13:32:47;1.17;;;0.65;;
78778;SDS011;68121;52.404;5.318;2023-07-20T13:35:13;0.93;;;0.50;;
78778;SDS011;68121;52.404;5.318;2023-07-20T13:37:40;3.55;;;0.50;;
78778;SDS011;68121;52.404;5.318;2023-07-20T13:40:06;0.57;;;0.50;;
78778;SDS011;68121;52.404;5.318;2023-07-20T13:42:37;1.38;;;0.77;;
78778;SDS011;68121;52.404;5.318;2023-07-20T13:45:03;3.55;;;0.60;;
78778;SDS011;68121;52.404;5.318;2023-07-20T13:47:30;1.23;;;0.70;;
78778;SDS011;68121;52.404;5.318;2023-07-20T13:49:56;1.23;;;0.50;;
78778;SDS011;68121;52.404;5.318;2023-07-20T13:52:22;1.20;;;0.60;;
78778;SDS011;68121;52.404;5.318;2023-07-20T13:54:48;0.57;;;0.52;;
78778;SDS011;68121;52.404;5.318;2023-07-20T13:57:14;3.60;;;0.80;;
78778;SDS011;68121;52.404;5.318;2023-07-20T13:59:40;1.30;;;0.60;;
78778;SDS011;68121;52.404;5.318;2023-07-20T14:02:07;0.90;;;0.60;;
78778;SDS011;68121;52.404;5.318;2023-07-20T14:04:33;1.35;;;0.68;;
78778;SDS011;68121;52.404;5.318;2023-07-20T14:06:59;1.10;;;0.60;;
78778;SDS011;68121;52.404;5.318;2023-07-20T14:09:25;1.52;;;0.60;;
78778;SDS011;68121;52.404;5.318;2023-07-20T14:11:51;1.77;;;0.73;;
78778;SDS011;68121;52.404;5.318;2023-07-20T14:14:17;2.63;;;0.45;;
78778;SDS011;68121;52.404;5.318;2023-07-20T14:16:43;1.77;;;0.57;;
78778;SDS011;68121;52.404;5.318;2023-07-20T14:19:09;3.40;;;1.98;;
78778;SDS011;68121;52.404;5.318;2023-07-20T14:21:36;1.70;;;1.60;;
78778;SDS011;68121;52.404;5.318;2023-07-20T14:24:02;1.75;;;1.00;;
78778;SDS011;68121;52.404;5.318;2023-07-20T14:26:29;2.33;;;1.10;;
78778;SDS011;68121;52.404;5.318;2023-07-20T14:28:55;2.63;;;1.50;;
78778;SDS011;68121;52.404;5.318;2023-07-20T14:31:21;2.22;;;1.02;;
78778;SDS011;68121;52.404;5.318;2023-07-20T14:33:47;2.75;;;1.00;;
78778;SDS011;68121;52.404;5.318;2023-07-20T14:36:13;3.60;;;1.08;;
78778;SDS011;68121;52.404;5.318;2023-07-20T14:38:39;1.02;;;0.60;;
78778;SDS011;68121;52.404;5.318;2023-07-20T14:41:06;1.02;;;0.70;;
78778;SDS011;68121;52.404;5.318;2023-07-20T14:43:32;1.17;;;0.50;;
78778;SDS011;68121;52.404;5.318;2023-07-20T14:45:58;1.35;;;0.60;;
78778;SDS011;68121;52.404;5.318;2023-07-20T14:48:24;0.70;;;0.55;;
78778;SDS011;68121;52.404;5.318;2023-07-20T14:50:50;1.35;;;0.50;;
78778;SDS011;68121;52.404;5.318;2023-07-20T14:53:16;1.15;;;0.60;;
78778;SDS011;68121;52.404;5.318;2023-07-20T14:55:42;1.33;;;0.82;;
78778;SDS011;68121;52.404;5.318;2023-07-20T14:58:09;1.77;;;0.80;;
78778;SDS011;68121;52.404;5.318;2023-07-20T15:00:36;0.90;;;0.50;;
78778;SDS011;68121;52.404;5.318;2023-07-20T15:03:02;0.70;;;0.60;;
78778;SDS011;68121;52.404;5.318;2023-07-20T15:05:30;2.08;;;0.40;;
78778;SDS011;68121;52.404;5.318;2023-07-20T15:07:56;2.30;;;0.60;;
78778;SDS011;68121;52.404;5.318;2023-07-20T15:10:22;1.13;;;0.60;;
78778;SDS011;68121;52.404;5.318;2023-07-20T15:12:48;1.30;;;0.50;;
78778;SDS011;68121;52.404;5.318;2023-07-20T15:15:14;0.80;;;0.80;;
78778;SDS011;68121;52.404;5.318;2023-07-20T15:17:42;0.57;;;0.50;;
78778;SDS011;68121;52.404;5.318;2023-07-20T15:20:10;1.23;;;0.50;;